EGFF Airport Information

Runway Information
Runway 12 Length 7848 ft width 151 ft
Elevation 205 ft Threshold 797 ft Heading 117
Runway 30 Length 7848 ft Width 151 ft
Elevation 213 ft Threshold 551 ft Heading 297
Airport Frequencies
Type APP Name Cardiff Ap Frequency 119.15 MHZ
Type APP Name Cardiff Ra Frequency 125.85 MHZ
Type ATIS Name ATIS Frequency 132.475 MHZ
Type Radar Name Frequency 133.6 MHZ
Type TWR Name Cardiff Tw Frequency 133.1 MHZ
Airport Navaids
Airport Weather Information & NOTAM
ADDS - METARS form results

(0607 UTC 26 November 2020)
Data provider http://aviationweather.gov/metar/data/
 
METAR text: EGFF 260550Z AUTO 03004KT 9999 NCD 04/02 Q1021
Conditions at: EGFF (CARDIFF-WALES AR, GB) observed 0550 UTC 26 November 2020
Temperature: 4.0°C (39°F)
Dewpoint: 2.0°C (36°F) [RH = 87%]
Pressure (altimeter): 30.15 inches Hg (1021.0 mb)
Winds: from the NNE (30 degrees) at 5 MPH (4 knots; 2.1 m/s)
Visibility: 6 or more miles (10+ km)
Ceiling: at least 12,000 feet AGL
Clouds: sky clear below 12,000 feet AGL
Weather: no significant weather observed at this time

METAR text: EGFF 260520Z AUTO 36006KT 9999 NCD 05/03 Q1021
Conditions at: EGFF (CARDIFF-WALES AR, GB) observed 0520 UTC 26 November 2020
Temperature: 5.0°C (41°F)
Dewpoint: 3.0°C (37°F) [RH = 87%]
Pressure (altimeter): 30.15 inches Hg (1021.0 mb)
Winds: from the N (360 degrees) at 7 MPH (6 knots; 3.1 m/s)
Visibility: 6 or more miles (10+ km)
Ceiling: at least 12,000 feet AGL
Clouds: sky clear below 12,000 feet AGL
Weather: no significant weather observed at this time

Forecast for: EGFF (CARDIFF-WALES AR, GB)
Text: TAF EGFF 260507Z 2606/2706 35005KT CAVOK
Forecast period: 0600 to 1800 UTC 26 November 2020
Forecast type: FROM: standard forecast or significant change
Winds: from the N (350 degrees) at 6 MPH (5 knots; 2.6 m/s)
Visibility: 6 or more miles (10+ km)
Ceiling: unknown
Clouds: missing
Weather: NSW  (no significant weather)
Text: PROB40
Forecast period: 0600 to 1100 UTC 26 November 2020
Forecast type: TEMPORARY: The following changes expected for less than half the time period
Visibility: 5 miles (8 km)
Ceiling: unknown
Clouds: missing
Weather: no significant weather forecast for this period
Text: TEMPO 2606/2611 8000
Forecast period: 1800 UTC 26 November 2020 to 0600 UTC 27 November 2020
Forecast type: BECOMING: Conditions expected to become as follows by 2100 UTC 26 November 2020
Winds: from the N (350 degrees) at 6 MPH (5 knots; 2.6 m/s)
Visibility: 5 miles (8 km)
Ceiling: unknown
Clouds: missing
Weather: NSW  (no significant weather)
Text: BECMG 2618/2621 8000
Forecast period: 2100 UTC 26 November 2020 to 0600 UTC 27 November 2020
Forecast type: PROBABLE: 40 percent likelihood of the following during this time
Visibility: 1.86 miles (2.99 km)
Ceiling: unknown
Clouds: missing
Weather: BR  (mist)